ADDS METAR Data INFO
IDs: Format: Raw Decoded Include TAF

Data at: 2207 UTC 24 Jun 2018

KMMK 242153Z AUTO 19008KT 150V220 10SM FEW075 OVC100 24/20 A2977 RMK AO2 LTG DSNT W-N SLP080 T02390200
KMMK 242053Z AUTO 19013G17KT 10SM SCT021 BKN100 24/19 A2978 RMK AO2 LTG DSNT NW SLP082 T02440194 56006
KMMK 241953Z AUTO 17011G17KT 10SM SCT027 BKN080 26/19 A2978 RMK AO2 SLP082 T02560189
KMMK 241853Z AUTO 18010KT 10SM FEW025 SCT040 SCT060 27/19 A2979 RMK AO2 SLP087 T02670189
KMMK 241827Z AUTO 19010KT 10SM SCT025 BKN055 26/19 A2980 RMK AO2 T02560189
KMMK 241808Z AUTO 18010KT 10SM BKN024 25/19 A2980 RMK AO2 T02500189
KMMK 241753Z AUTO VRB06KT 10SM SCT024 26/19 A2980 RMK AO2 SLP088 T02560189 10261 20172 58013
KMMK 241721Z AUTO 17008KT 10SM SCT021 BKN031 BKN046 26/19 A2981 RMK AO2 T02560189
KMMK 241714Z AUTO 15007KT 100V190 10SM BKN021 BKN030 26/19 A2982 RMK AO2 T02560189
KMMK 241653Z AUTO 19008KT 10SM FEW019 24/18 A2981 RMK AO2 SLP093 T02440183
KMMK 241617Z AUTO 18009KT 10SM SCT017 24/18 A2983 RMK AO2 T02390183
KMMK 241553Z AUTO 18009KT 10SM SCT017 BKN029 24/18 A2983 RMK AO2 SLP099 T02440183
KMMK 241502Z AUTO VRB05KT 10SM OVC017 22/18 A2983 RMK AO2 T02220178
KMMK 241453Z AUTO 11004KT 10SM OVC013 22/17 A2983 RMK AO2 SLP101 T02170172 58002
KMMK 241353Z AUTO 18004KT 10SM OVC012 20/17 A2984 RMK AO2 SLP103 T02000167
KMMK 241328Z AUTO 21004KT 10SM OVC010 19/17 A2984 RMK AO2 T01940167
KMMK 241253Z AUTO VRB05KT 10SM OVC008 18/16 A2984 RMK AO2 SLP102 T01830161
KMMK 241153Z AUTO 19006KT 10SM OVC007 17/15 A2984 RMK AO2 SLP105 T01720150 10172 20150 53007
KMMK 241053Z AUTO 16004KT 10SM BKN008 OVC013 16/15 A2983 RMK AO2 SLP100 T01610150
KMMK 241022Z AUTO 00000KT 10SM OVC008 16/14 A2982 RMK AO2 T01560144
KMMK 240953Z AUTO 00000KT 10SM OVC010 16/14 A2982 RMK AO2 CIG 008V012 SLP098 T01560144
KMMK 240853Z AUTO 15003KT 10SM OVC007 15/14 A2982 RMK AO2 SLP097 T01500139 55006
KMMK 240814Z AUTO 00000KT 10SM OVC007 15/14 A2982 RMK AO2 T01500139
KMMK 240753Z AUTO 00000KT 10SM OVC006 15/14 A2981 RMK AO2 SLP095 T01500139
KMMK 240735Z AUTO 00000KT 10SM OVC006 15/14 A2981 RMK AO2 CIG 005V009 T01500139
KMMK 240726Z AUTO 00000KT 10SM OVC008 15/14 A2981 RMK AO2 CIG 005V010 T01500144
KMMK 240713Z AUTO 00000KT 10SM BKN006 OVC010 15/14 A2981 RMK AO2 CIG 005V009 T01500139
KMMK 240653Z AUTO 34003KT 10SM OVC008 16/14 A2982 RMK AO2 CIG 005V010 SLP097 T01560139
KMMK 240634Z AUTO 00000KT 10SM OVC008 16/14 A2983 RMK AO2 CIG 005V010 T01560139
KMMK 240553Z AUTO 00000KT 10SM OVC005 16/14 A2984 RMK AO2 SLP103 T01560144 10161 20150 58002
KMMK 240453Z AUTO 00000KT 10SM OVC005 15/14 A2984 RMK AO2 SLP105 T01500144 401830139
KMMK 240353Z AUTO 32003KT 10SM OVC005 16/14 A2985 RMK AO2 SLP107 T01560139
KMMK 240253Z AUTO 33005KT 10SM OVC006 16/14 A2984 RMK AO2 SLP106 T01560144 50003
KMMK 240215Z AUTO 02003KT 9SM OVC006 16/14 A2985 RMK AO2 T01610144
KMMK 240153Z AUTO 33003KT 9SM OVC007 16/14 A2985 RMK AO2 CIG 005V011 SLP108 T01560144
KMMK 240124Z AUTO 32005KT 10SM OVC009 16/15 A2986 RMK AO2 CIG 005V012 T01610150
KMMK 240111Z AUTO 31005KT 10SM BKN006 OVC011 16/15 A2986 RMK AO2 CIG 005V010 T01610150
KMMK 240053Z AUTO 33004KT 10SM OVC009 16/15 A2985 RMK AO2 CIG 006V012 SLP107 T01610150
KMMK 240024Z AUTO 34004KT 4SM BR OVC008 16/15 A2984 RMK AO2 CIG 004V011 T01610150
KMMK 232353Z AUTO 01004KT 3SM BR OVC010 16/15 A2983 RMK AO2 CIG 006V013 SLP102 T01610150 10183 20161 55001
KMMK 232329Z AUTO 01004KT 3SM BR OVC008 17/15 A2983 RMK AO2 CIG 006V013 T01670150
KMMK 232321Z AUTO 34003KT 2 1/2SM BR OVC008 17/15 A2983 RMK AO2 CIG 006V012 T01670150
KMMK 232253Z AUTO 35005KT 7SM OVC008 17/15 A2983 RMK AO2 SLP099 T01720150
KMMK 232233Z AUTO 35005KT 9SM OVC009 17/15 A2983 RMK AO2 T01720150
KMMK 232153Z AUTO 02004KT 10SM OVC011 17/15 A2982 RMK AO2 SLP097 T01720150
KMMK 232053Z AUTO 34005KT 10SM OVC012 18/14 A2984 RMK AO2 SLP102 T01780144 56009
KMMK 231953Z AUTO VRB04KT 10SM OVC013 18/14 A2984 RMK AO2 SLP104 T01780144
KMMK 231853Z AUTO 01005KT 10SM OVC012 17/14 A2985 RMK AO2 SLP108 T01720139
KMMK 231825Z AUTO 36005KT 10SM OVC010 17/14 A2986 RMK AO2 T01670139
KMMK 231814Z AUTO 01007KT 10SM OVC009 17/14 A2986 RMK AO2 CIG 007V012 T01670139
KMMK 231803Z AUTO VRB06KT 10SM OVC010 16/14 A2987 RMK AO2 CIG 007V012 T01610139
KMMK 231753Z AUTO VRB06KT 10SM OVC008 16/14 A2987 RMK AO2 CIG 006V012 SLP113 60000 T01610139 10161 20139 58017
KMMK 231653Z AUTO 01005KT 8SM OVC007 15/14 A2988 RMK AO2 RAE01B35E48 SLP118 P0000 T01500139
KMMK 231617Z AUTO 36005KT 3SM BR OVC007 15/13 A2990 RMK AO2 RAE01 P0000 T01500133
KMMK 231610Z AUTO 36007KT 3SM BR OVC006 15/13 A2990 RMK AO2 RAE01 P0000 T01500133
KMMK 231603Z AUTO 01007KT 2 1/2SM BR OVC006 14/13 A2990 RMK AO2 RAE01 P0000 T01440133
KMMK 231553Z AUTO 01006KT 1 1/2SM -RA BR OVC007 14/13 A2990 RMK AO2 RAB45 SLP125 P0000 T01440133
KMMK 231502Z AUTO 01005KT 2 1/2SM BR BKN008 OVC012 14/13 A2992 RMK AO2 CIG 006V012 T01390128
KMMK 231453Z AUTO 35005KT 2 1/2SM BR OVC012 14/13 A2992 RMK AO2 SLP130 60000 T01440128 58012
KMMK 231441Z AUTO 36005KT 2SM BR OVC014 14/13 A2992 RMK AO2 T01390128
KMMK 231434Z AUTO 01005KT 3SM BR OVC014 14/12 A2992 RMK AO2 T01390122
KMMK 231353Z AUTO 36006KT 10SM OVC019 14/12 A2993 RMK AO2 RAE15 SLP134 P0000 T01440117
KMMK 231253Z AUTO 02005KT 9SM -RA OVC022 14/11 A2994 RMK AO2 RAB15 SLP139 P0000 T01440106
KMMK 231153Z AUTO VRB06KT 10SM BKN026 OVC032 16/08 A2995 RMK AO2 RAB24E35 SLP141 P0000 60000 T01610083 10172 20156 56005
KMMK 231053Z AUTO 00000KT 10SM SCT037 OVC046 17/07 A2996 RMK AO2 SLP142 T01720067